Aviation Digital Data Service (ADDS)

Output produced by METARs form (1201 UTC 16 July 2019)
found at http://www.aviationweather.gov/metar/data/
 
LKCV 161100Z 31012KT 9999 SCT026 BKN040 17/11 Q1015 NOSIG RMK BLU BLU
TAF LKCV 161100Z 1612/1712 30012KT 9999 BKN040 
     BECMG 1613/1615 CAVOK 
     BECMG 1616/1618 28006KT 
     TEMPO 1623/1708 BKN025
       
LKKV 161130Z 26011KT 230V300 9999 BKN028 17/09 Q1017
TAF LKKV 161100Z 1612/1718 30006KT 9999 SCT033 
     TEMPO 1612/1618 32012G22KT 7000 -SHRA BKN026 
     BECMG 1621/1623 VRB02KT 
     BECMG 1706/1708 33006KT 9999 SCT033 
     TEMPO 1708/1718 7000 -SHRA BKN026 
     PROB30 
     TEMPO 1712/1718 6000 SHRA SCT036TCU
       
LKKB 161100Z 30007KT 260V340 9999 BKN040 19/09 Q1015 NOSIG
TAF LKKB 161100Z 1612/1712 32010KT 9999 BKN040 
     TEMPO 1612/1618 31014G24KT 
     BECMG 1613/1615 CAVOK
       
LKKU 161100Z 00000KT 9999 BKN041 23/13 Q1013
LKLN 161100Z AUTO VRB06KT 9999 FEW041 20/10 Q1016
LKMT 161130Z 26013KT 230V290 9999 SCT047 22/09 Q1013 NOSIG
TAF LKMT 161100Z 1612/1718 24006KT CAVOK 
     TEMPO 1612/1617 35014G26KT 7000 SHRA BKN033 
     BECMG 1706/1708 35010KT 9999 SCT035 
     TEMPO 1708/1718 36012G26KT 9999 -SHRA BKN026
       
LKNA 161100Z 31010KT 270V330 9999 SCT034 20/11 Q1014 NOSIG RMK BLU BLU
TAF LKNA 161100Z 1612/1712 31008KT CAVOK 
     TEMPO 1612/1617 32014G24KT SCT040
       
LKPD 161100Z 29011KT 9999 SCT021 OVC032 17/10 Q1015 NOSIG RMK BLU BLU
TAF LKPD 161100Z 1612/1712 28010KT 9999 BKN040 
     TEMPO 1612/1618 31014G24KT 
     BECMG 1613/1615 CAVOK 
     BECMG 1619/1621 28006KT 
     TEMPO 1622/1704 BKN027 
     BECMG 1707/1709 30008KT SCT035
       
LKPR 161130Z 32012KT 9999 SCT044 20/09 Q1015 NOSIG
TAF LKPR 161100Z 1612/1718 29008KT CAVOK 
     TEMPO 1612/1619 34014G24KT 9999 SCT033 
     TEMPO 1702/1706 7000 SCT023 
     BECMG 1706/1708 35010KT 9999 SCT036 
     TEMPO 1712/1718 BKN023
       
LKTB 161130Z 30012KT 9999 SCT045 22/12 Q1013 NOSIG
TAF LKTB 161100Z 1612/1718 32008KT CAVOK 
     TEMPO 1612/1618 35014G26KT 7000 -SHRA BKN033 
     BECMG 1707/1709 33010KT 
     TEMPO 1712/1718 SCT036 
     BECMG 1715/1718 07008KT
       
LKVO 161100Z 33008KT 270V040 9999 BKN039 18/09 Q1015